sensor_id;sensor_type;location;lat;lon;timestamp;pressure;altitude;pressure_sealevel;temperature;humidity
14120;BME280;7138;49.246;9.100;2023-02-26T00:01:18;98333.59;;;1.58;80.12
14120;BME280;7138;49.246;9.100;2023-02-26T00:03:47;98341.00;;;1.50;79.85
14120;BME280;7138;49.246;9.100;2023-02-26T00:06:14;98334.50;;;1.60;80.08
14120;BME280;7138;49.246;9.100;2023-02-26T00:08:39;98341.91;;;1.52;80.20
14120;BME280;7138;49.246;9.100;2023-02-26T00:11:06;98334.78;;;1.41;80.10
14120;BME280;7138;49.246;9.100;2023-02-26T00:13:34;98346.97;;;1.51;80.35
14120;BME280;7138;49.246;9.100;2023-02-26T00:16:01;98349.34;;;1.45;79.60
14120;BME280;7138;49.246;9.100;2023-02-26T00:18:30;98346.72;;;1.43;80.35
14120;BME280;7138;49.246;9.100;2023-02-26T00:20:56;98341.56;;;1.40;79.52
14120;BME280;7138;49.246;9.100;2023-02-26T00:23:23;98345.06;;;1.44;79.31
14120;BME280;7138;49.246;9.100;2023-02-26T00:25:49;98355.31;;;1.45;78.96
14120;BME280;7138;49.246;9.100;2023-02-26T00:28:15;98348.44;;;1.43;80.54
14120;BME280;7138;49.246;9.100;2023-02-26T00:30:42;98345.16;;;1.47;79.63
14120;BME280;7138;49.246;9.100;2023-02-26T00:33:08;98348.53;;;1.46;80.12
14120;BME280;7138;49.246;9.100;2023-02-26T00:35:37;98351.78;;;1.42;80.43
14120;BME280;7138;49.246;9.100;2023-02-26T00:38:06;98355.94;;;1.38;80.58
14120;BME280;7138;49.246;9.100;2023-02-26T00:40:42;98354.16;;;1.36;80.49
14120;BME280;7138;49.246;9.100;2023-02-26T00:43:15;98356.53;;;1.30;80.42
14120;BME280;7138;49.246;9.100;2023-02-26T00:45:50;98352.88;;;1.22;80.37
14120;BME280;7138;49.246;9.100;2023-02-26T00:48:36;98353.81;;;1.24;81.52
14120;BME280;7138;49.246;9.100;2023-02-26T00:51:13;98346.09;;;1.22;80.92
14120;BME280;7138;49.246;9.100;2023-02-26T00:53:50;98355.31;;;1.19;80.35
14120;BME280;7138;49.246;9.100;2023-02-26T00:56:18;98349.25;;;1.14;80.42
14120;BME280;7138;49.246;9.100;2023-02-26T00:58:44;98351.75;;;1.12;80.06
14120;BME280;7138;49.246;9.100;2023-02-26T01:01:10;98354.66;;;0.97;80.29
14120;BME280;7138;49.246;9.100;2023-02-26T01:03:36;98356.28;;;0.94;81.17
14120;BME280;7138;49.246;9.100;2023-02-26T01:06:04;98356.22;;;0.92;80.87
14120;BME280;7138;49.246;9.100;2023-02-26T01:08:44;98353.47;;;0.86;80.48
14120;BME280;7138;49.246;9.100;2023-02-26T01:11:12;98350.94;;;0.86;80.71
14120;BME280;7138;49.246;9.100;2023-02-26T01:13:39;98345.63;;;0.79;81.21
14120;BME280;7138;49.246;9.100;2023-02-26T01:16:11;98352.19;;;0.72;80.94
14120;BME280;7138;49.246;9.100;2023-02-26T01:18:45;98353.09;;;0.74;81.36
14120;BME280;7138;49.246;9.100;2023-02-26T01:21:18;98340.38;;;0.74;81.34
14120;BME280;7138;49.246;9.100;2023-02-26T01:23:51;98341.38;;;0.79;81.08
14120;BME280;7138;49.246;9.100;2023-02-26T01:26:22;98356.34;;;0.70;81.50
14120;BME280;7138;49.246;9.100;2023-02-26T01:28:49;98346.16;;;0.70;82.22
14120;BME280;7138;49.246;9.100;2023-02-26T01:31:37;98353.00;;;0.71;82.23
14120;BME280;7138;49.246;9.100;2023-02-26T01:34:09;98342.72;;;0.68;82.83
14120;BME280;7138;49.246;9.100;2023-02-26T01:36:47;98346.16;;;0.70;83.33
14120;BME280;7138;49.246;9.100;2023-02-26T01:39:27;98348.00;;;0.74;82.81
14120;BME280;7138;49.246;9.100;2023-02-26T01:42:00;98337.03;;;0.75;82.95
14120;BME280;7138;49.246;9.100;2023-02-26T01:44:36;98343.72;;;0.73;82.72
14120;BME280;7138;49.246;9.100;2023-02-26T01:47:15;98343.53;;;0.67;83.31
14120;BME280;7138;49.246;9.100;2023-02-26T01:49:43;98346.03;;;0.66;82.79
14120;BME280;7138;49.246;9.100;2023-02-26T01:55:28;98349.34;;;0.63;83.09
14120;BME280;7138;49.246;9.100;2023-02-26T01:57:57;98354.34;;;0.60;83.14
14120;BME280;7138;49.246;9.100;2023-02-26T02:00:25;98347.28;;;0.51;83.21
14120;BME280;7138;49.246;9.100;2023-02-26T02:02:51;98348.88;;;0.48;83.65
14120;BME280;7138;49.246;9.100;2023-02-26T02:05:25;98353.06;;;0.47;83.36
14120;BME280;7138;49.246;9.100;2023-02-26T02:07:53;98353.88;;;0.46;83.22
14120;BME280;7138;49.246;9.100;2023-02-26T02:10:19;98352.09;;;0.44;83.72
14120;BME280;7138;49.246;9.100;2023-02-26T02:12:55;98349.84;;;0.51;83.92
14120;BME280;7138;49.246;9.100;2023-02-26T02:15:36;98348.91;;;0.49;83.24
14120;BME280;7138;49.246;9.100;2023-02-26T02:18:13;98353.19;;;0.50;83.37
14120;BME280;7138;49.246;9.100;2023-02-26T02:21:05;98354.03;;;0.51;83.78
14120;BME280;7138;49.246;9.100;2023-02-26T02:23:42;98354.16;;;0.54;83.33
14120;BME280;7138;49.246;9.100;2023-02-26T02:26:39;98347.31;;;0.53;83.50
14120;BME280;7138;49.246;9.100;2023-02-26T02:30:04;98354.16;;;0.54;83.88
14120;BME280;7138;49.246;9.100;2023-02-26T02:32:42;98348.88;;;0.48;83.59
14120;BME280;7138;49.246;9.100;2023-02-26T02:35:15;98357.47;;;0.51;83.58
14120;BME280;7138;49.246;9.100;2023-02-26T02:37:47;98352.50;;;0.56;83.26
14120;BME280;7138;49.246;9.100;2023-02-26T02:40:19;98354.19;;;0.55;83.39
14120;BME280;7138;49.246;9.100;2023-02-26T02:42:53;98361.59;;;0.49;83.31
14120;BME280;7138;49.246;9.100;2023-02-26T02:45:25;98355.56;;;0.46;83.53
14120;BME280;7138;49.246;9.100;2023-02-26T02:48:00;98365.53;;;0.40;83.79
14120;BME280;7138;49.246;9.100;2023-02-26T02:50:34;98373.69;;;0.30;83.44
14120;BME280;7138;49.246;9.100;2023-02-26T02:53:08;98365.22;;;0.31;83.97
14120;BME280;7138;49.246;9.100;2023-02-26T02:55:39;98371.06;;;0.28;83.75
14120;BME280;7138;49.246;9.100;2023-02-26T02:58:13;98377.94;;;0.31;83.84
14120;BME280;7138;49.246;9.100;2023-02-26T03:00:44;98374.44;;;0.27;84.23
14120;BME280;7138;49.246;9.100;2023-02-26T03:03:21;98371.72;;;0.23;83.77
14120;BME280;7138;49.246;9.100;2023-02-26T03:05:49;98372.53;;;0.22;84.31
14120;BME280;7138;49.246;9.100;2023-02-26T03:08:21;98376.81;;;0.23;83.85
14120;BME280;7138;49.246;9.100;2023-02-26T03:10:47;98376.88;;;0.24;84.32
14120;BME280;7138;49.246;9.100;2023-02-26T03:13:16;98384.75;;;0.32;84.23
14120;BME280;7138;49.246;9.100;2023-02-26T03:15:58;98375.44;;;0.32;83.69
14120;BME280;7138;49.246;9.100;2023-02-26T03:18:39;98380.47;;;0.31;83.99
14120;BME280;7138;49.246;9.100;2023-02-26T03:21:16;98386.84;;;0.18;84.25
14120;BME280;7138;49.246;9.100;2023-02-26T03:23:53;98384.34;;;0.20;84.35
14120;BME280;7138;49.246;9.100;2023-02-26T03:26:28;98379.91;;;0.14;84.18
14120;BME280;7138;49.246;9.100;2023-02-26T03:29:04;98392.75;;;0.19;83.82
14120;BME280;7138;49.246;9.100;2023-02-26T03:31:40;98391.09;;;0.19;84.18
14120;BME280;7138;49.246;9.100;2023-02-26T03:34:17;98394.50;;;0.20;83.90
14120;BME280;7138;49.246;9.100;2023-02-26T03:36:50;98399.53;;;0.18;84.08
14120;BME280;7138;49.246;9.100;2023-02-26T03:39:26;98403.03;;;0.22;83.84
14120;BME280;7138;49.246;9.100;2023-02-26T03:42:00;98393.91;;;0.27;84.08
14120;BME280;7138;49.246;9.100;2023-02-26T03:44:34;98401.53;;;0.27;83.85
14120;BME280;7138;49.246;9.100;2023-02-26T03:47:06;98408.97;;;0.22;83.93
14120;BME280;7138;49.246;9.100;2023-02-26T03:49:40;98414.56;;;0.12;84.06
14120;BME280;7138;49.246;9.100;2023-02-26T03:52:09;98387.78;;;-0.02;84.30
14120;BME280;7138;49.246;9.100;2023-02-26T03:54:40;98420.47;;;0.11;84.23
14120;BME280;7138;49.246;9.100;2023-02-26T03:57:07;98426.34;;;0.10;84.21
14120;BME280;7138;49.246;9.100;2023-02-26T03:59:34;98426.41;;;0.12;84.00
14120;BME280;7138;49.246;9.100;2023-02-26T04:02:04;98425.56;;;0.13;83.81
14120;BME280;7138;49.246;9.100;2023-02-26T04:04:41;98434.03;;;0.12;83.94
14120;BME280;7138;49.246;9.100;2023-02-26T04:07:11;98434.50;;;0.02;84.01
14120;BME280;7138;49.246;9.100;2023-02-26T04:09:40;98434.97;;;-0.09;84.55
14120;BME280;7138;49.246;9.100;2023-02-26T04:12:06;98436.50;;;-0.14;84.81
14120;BME280;7138;49.246;9.100;2023-02-26T04:14:32;98439.94;;;-0.12;84.74
14120;BME280;7138;49.246;9.100;2023-02-26T04:16:58;98441.69;;;-0.11;84.61
14120;BME280;7138;49.246;9.100;2023-02-26T04:19:24;98444.34;;;-0.08;84.65
14120;BME280;7138;49.246;9.100;2023-02-26T04:21:51;98450.19;;;-0.10;84.96
14120;BME280;7138;49.246;9.100;2023-02-26T04:24:17;98457.81;;;-0.10;85.01
14120;BME280;7138;49.246;9.100;2023-02-26T04:26:43;98453.47;;;-0.13;84.77
14120;BME280;7138;49.246;9.100;2023-02-26T04:29:10;98454.38;;;-0.11;85.08
14120;BME280;7138;49.246;9.100;2023-02-26T04:31:36;98453.28;;;-0.17;84.65
14120;BME280;7138;49.246;9.100;2023-02-26T04:34:02;98458.78;;;-0.07;84.84
14120;BME280;7138;49.246;9.100;2023-02-26T04:36:28;98456.16;;;-0.08;84.49
14120;BME280;7138;49.246;9.100;2023-02-26T04:38:55;98466.41;;;-0.07;84.75
14120;BME280;7138;49.246;9.100;2023-02-26T04:41:21;98463.97;;;-0.04;84.60
14120;BME280;7138;49.246;9.100;2023-02-26T04:43:47;98467.25;;;-0.06;85.00
14120;BME280;7138;49.246;9.100;2023-02-26T04:46:13;98469.41;;;-0.17;84.84
14120;BME280;7138;49.246;9.100;2023-02-26T04:48:39;98478.66;;;-0.19;85.14
14120;BME280;7138;49.246;9.100;2023-02-26T04:51:05;98473.34;;;-0.25;85.12
14120;BME280;7138;49.246;9.100;2023-02-26T04:53:31;98471.66;;;-0.24;84.96
14120;BME280;7138;49.246;9.100;2023-02-26T04:55:59;98476.56;;;-0.29;85.18
14120;BME280;7138;49.246;9.100;2023-02-26T04:58:24;98482.53;;;-0.28;84.59
14120;BME280;7138;49.246;9.100;2023-02-26T05:00:52;98473.28;;;-0.26;84.98
14120;BME280;7138;49.246;9.100;2023-02-26T05:03:21;98466.41;;;-0.29;85.25
14120;BME280;7138;49.246;9.100;2023-02-26T05:05:47;98482.53;;;-0.28;84.65
14120;BME280;7138;49.246;9.100;2023-02-26T05:08:13;98480.13;;;-0.24;84.90
14120;BME280;7138;49.246;9.100;2023-02-26T05:10:39;98473.56;;;-0.19;84.88
14120;BME280;7138;49.246;9.100;2023-02-26T05:13:07;98474.94;;;-0.27;84.82
14120;BME280;7138;49.246;9.100;2023-02-26T05:15:33;98484.50;;;-0.42;84.81
14120;BME280;7138;49.246;9.100;2023-02-26T05:17:59;98492.59;;;-0.30;85.10
14120;BME280;7138;49.246;9.100;2023-02-26T05:20:24;98486.75;;;-0.27;84.98
14120;BME280;7138;49.246;9.100;2023-02-26T05:22:50;98485.09;;;-0.27;85.04
14120;BME280;7138;49.246;9.100;2023-02-26T05:25:16;98490.19;;;-0.27;85.08
14120;BME280;7138;49.246;9.100;2023-02-26T05:27:42;98496.88;;;-0.29;84.80
14120;BME280;7138;49.246;9.100;2023-02-26T05:30:15;98507.72;;;-0.33;85.19
14120;BME280;7138;49.246;9.100;2023-02-26T05:32:42;98500.06;;;-0.34;84.81
14120;BME280;7138;49.246;9.100;2023-02-26T05:35:11;98495.84;;;-0.34;84.89
14120;BME280;7138;49.246;9.100;2023-02-26T05:37:38;98499.19;;;-0.35;85.28
14120;BME280;7138;49.246;9.100;2023-02-26T05:40:07;98508.25;;;-0.41;85.62
14120;BME280;7138;49.246;9.100;2023-02-26T05:42:35;98513.28;;;-0.43;85.42
14120;BME280;7138;49.246;9.100;2023-02-26T05:45:01;98514.88;;;-0.45;85.45
14120;BME280;7138;49.246;9.100;2023-02-26T05:47:28;98520.56;;;-0.50;85.72
14120;BME280;7138;49.246;9.100;2023-02-26T05:49:54;98522.38;;;-0.48;85.59
14120;BME280;7138;49.246;9.100;2023-02-26T05:52:20;98525.97;;;-0.43;85.61
14120;BME280;7138;49.246;9.100;2023-02-26T05:54:46;98530.09;;;-0.45;85.36
14120;BME280;7138;49.246;9.100;2023-02-26T05:57:12;98524.03;;;-0.48;85.43
14120;BME280;7138;49.246;9.100;2023-02-26T05:59:37;98526.75;;;-0.44;85.20
14120;BME280;7138;49.246;9.100;2023-02-26T06:02:03;98529.97;;;-0.48;85.37
14120;BME280;7138;49.246;9.100;2023-02-26T06:04:30;98532.41;;;-0.51;85.37
14120;BME280;7138;49.246;9.100;2023-02-26T06:06:56;98536.69;;;-0.50;85.47
14120;BME280;7138;49.246;9.100;2023-02-26T06:09:22;98541.88;;;-0.47;85.08
14120;BME280;7138;49.246;9.100;2023-02-26T06:11:48;98547.94;;;-0.43;85.01
14120;BME280;7138;49.246;9.100;2023-02-26T06:14:14;98552.94;;;-0.45;84.80
14120;BME280;7138;49.246;9.100;2023-02-26T06:16:40;98557.16;;;-0.45;84.87
14120;BME280;7138;49.246;9.100;2023-02-26T06:19:06;98561.56;;;-0.41;84.89
14120;BME280;7138;49.246;9.100;2023-02-26T06:21:33;98570.84;;;-0.42;84.78
14120;BME280;7138;49.246;9.100;2023-02-26T06:23:59;98570.81;;;-0.43;85.18
14120;BME280;7138;49.246;9.100;2023-02-26T06:26:25;98575.75;;;-0.46;85.31
14120;BME280;7138;49.246;9.100;2023-02-26T06:28:50;98573.13;;;-0.48;85.12
14120;BME280;7138;49.246;9.100;2023-02-26T06:31:16;98581.63;;;-0.47;84.97
14120;BME280;7138;49.246;9.100;2023-02-26T06:33:42;98582.06;;;-0.37;84.98
14120;BME280;7138;49.246;9.100;2023-02-26T06:36:08;98589.81;;;-0.34;84.83
14120;BME280;7138;49.246;9.100;2023-02-26T06:38:35;98589.00;;;-0.33;84.41
14120;BME280;7138;49.246;9.100;2023-02-26T06:41:01;98591.66;;;-0.30;85.19
14120;BME280;7138;49.246;9.100;2023-02-26T06:43:27;98593.69;;;-0.21;85.03
14120;BME280;7138;49.246;9.100;2023-02-26T06:45:56;98597.22;;;-0.18;84.99
14120;BME280;7138;49.246;9.100;2023-02-26T06:48:23;98579.19;;;-0.24;84.47
14120;BME280;7138;49.246;9.100;2023-02-26T06:50:48;98603.72;;;-0.04;84.21
14120;BME280;7138;49.246;9.100;2023-02-26T06:53:14;98613.16;;;0.00;83.96
14120;BME280;7138;49.246;9.100;2023-02-26T06:55:44;98609.44;;;0.13;84.10
14120;BME280;7138;49.246;9.100;2023-02-26T06:58:11;98619.56;;;0.12;83.74
14120;BME280;7138;49.246;9.100;2023-02-26T07:00:38;98611.19;;;0.14;84.51
14120;BME280;7138;49.246;9.100;2023-02-26T07:03:05;98609.75;;;0.21;83.43
14120;BME280;7138;49.246;9.100;2023-02-26T07:05:31;98618.34;;;0.24;83.52
14120;BME280;7138;49.246;9.100;2023-02-26T07:07:57;98620.53;;;0.15;83.49
14120;BME280;7138;49.246;9.100;2023-02-26T07:10:23;98628.91;;;0.13;83.33
14120;BME280;7138;49.246;9.100;2023-02-26T07:12:51;98630.53;;;0.11;83.65
14120;BME280;7138;49.246;9.100;2023-02-26T07:15:17;98637.53;;;-0.05;83.96
14120;BME280;7138;49.246;9.100;2023-02-26T07:17:43;98636.88;;;-0.01;84.07
14120;BME280;7138;49.246;9.100;2023-02-26T07:20:11;98640.22;;;-0.02;83.99
14120;BME280;7138;49.246;9.100;2023-02-26T07:22:38;98631.91;;;0.03;84.38
14120;BME280;7138;49.246;9.100;2023-02-26T07:25:05;98634.81;;;0.12;84.22
14120;BME280;7138;49.246;9.100;2023-02-26T07:27:32;98638.03;;;0.08;83.99
14120;BME280;7138;49.246;9.100;2023-02-26T07:29:59;98635.97;;;0.20;84.11
14120;BME280;7138;49.246;9.100;2023-02-26T07:32:26;98644.84;;;0.31;84.47
14120;BME280;7138;49.246;9.100;2023-02-26T07:34:52;98645.38;;;0.44;84.67
14120;BME280;7138;49.246;9.100;2023-02-26T07:37:17;98644.41;;;0.41;84.27
14120;BME280;7138;49.246;9.100;2023-02-26T07:39:44;98653.47;;;0.57;84.29
14120;BME280;7138;49.246;9.100;2023-02-26T07:42:10;98652.78;;;0.61;83.93
14120;BME280;7138;49.246;9.100;2023-02-26T07:44:36;98658.72;;;0.83;83.83
14120;BME280;7138;49.246;9.100;2023-02-26T07:47:04;98662.38;;;0.91;83.20
14120;BME280;7138;49.246;9.100;2023-02-26T07:49:30;98670.03;;;0.91;82.60
14120;BME280;7138;49.246;9.100;2023-02-26T07:51:57;98673.13;;;1.06;82.50
14120;BME280;7138;49.246;9.100;2023-02-26T07:54:23;98673.28;;;1.11;82.40
14120;BME280;7138;49.246;9.100;2023-02-26T07:56:48;98682.06;;;1.19;81.98
14120;BME280;7138;49.246;9.100;2023-02-26T07:59:15;98684.19;;;1.31;82.21
14120;BME280;7138;49.246;9.100;2023-02-26T08:01:41;98684.19;;;1.31;81.83
14120;BME280;7138;49.246;9.100;2023-02-26T08:04:08;98678.28;;;1.32;81.46
14120;BME280;7138;49.246;9.100;2023-02-26T08:06:34;98682.91;;;1.43;82.18
14120;BME280;7138;49.246;9.100;2023-02-26T08:09:00;98690.97;;;1.55;82.98
14120;BME280;7138;49.246;9.100;2023-02-26T08:11:26;98684.28;;;1.57;82.91
14120;BME280;7138;49.246;9.100;2023-02-26T08:13:52;98688.00;;;1.67;81.11
14120;BME280;7138;49.246;9.100;2023-02-26T08:16:18;98680.00;;;1.82;82.11
14120;BME280;7138;49.246;9.100;2023-02-26T08:18:44;98686.38;;;1.94;81.49
14120;BME280;7138;49.246;9.100;2023-02-26T08:21:11;98677.22;;;2.01;81.27
14120;BME280;7138;49.246;9.100;2023-02-26T08:23:37;98685.69;;;2.00;80.51
14120;BME280;7138;49.246;9.100;2023-02-26T08:26:07;98681.66;;;2.06;81.09
14120;BME280;7138;49.246;9.100;2023-02-26T08:28:34;98688.88;;;2.19;80.94
14120;BME280;7138;49.246;9.100;2023-02-26T08:31:00;98683.78;;;2.19;79.07
14120;BME280;7138;49.246;9.100;2023-02-26T08:33:26;98684.13;;;2.30;79.12
14120;BME280;7138;49.246;9.100;2023-02-26T08:35:53;98682.97;;;2.20;79.65
14120;BME280;7138;49.246;9.100;2023-02-26T08:38:21;98696.00;;;2.30;79.46
14120;BME280;7138;49.246;9.100;2023-02-26T08:40:48;98689.41;;;2.36;80.32
14120;BME280;7138;49.246;9.100;2023-02-26T08:43:14;98694.63;;;2.41;78.69
14120;BME280;7138;49.246;9.100;2023-02-26T08:45:40;98693.97;;;2.46;78.99
14120;BME280;7138;49.246;9.100;2023-02-26T08:48:06;98702.72;;;2.54;80.03
14120;BME280;7138;49.246;9.100;2023-02-26T08:50:32;98704.06;;;2.70;79.83
14120;BME280;7138;49.246;9.100;2023-02-26T08:52:57;98701.78;;;2.79;79.41
14120;BME280;7138;49.246;9.100;2023-02-26T08:55:25;98709.81;;;2.91;78.71
14120;BME280;7138;49.246;9.100;2023-02-26T08:57:51;98712.44;;;2.94;78.51
14120;BME280;7138;49.246;9.100;2023-02-26T09:00:17;98711.69;;;2.98;77.82
14120;BME280;7138;49.246;9.100;2023-02-26T09:02:44;98717.66;;;2.97;77.27
14120;BME280;7138;49.246;9.100;2023-02-26T09:05:10;98721.00;;;2.95;76.93
14120;BME280;7138;49.246;9.100;2023-02-26T09:07:37;98720.91;;;2.92;77.62
14120;BME280;7138;49.246;9.100;2023-02-26T09:10:04;98722.34;;;2.84;77.35
14120;BME280;7138;49.246;9.100;2023-02-26T09:12:33;98733.13;;;2.75;78.09
14120;BME280;7138;49.246;9.100;2023-02-26T09:15:01;98730.75;;;2.80;77.64
14120;BME280;7138;49.246;9.100;2023-02-26T09:17:29;98737.44;;;2.76;77.54
14120;BME280;7138;49.246;9.100;2023-02-26T09:19:55;98738.63;;;2.87;77.50
14120;BME280;7138;49.246;9.100;2023-02-26T09:22:20;98743.28;;;3.00;77.79
14120;BME280;7138;49.246;9.100;2023-02-26T09:24:46;98743.22;;;2.99;77.57
14120;BME280;7138;49.246;9.100;2023-02-26T09:27:12;98749.81;;;2.92;76.36
14120;BME280;7138;49.246;9.100;2023-02-26T09:29:39;98756.03;;;2.72;77.06
14120;BME280;7138;49.246;9.100;2023-02-26T09:32:05;98759.47;;;2.74;77.45
14120;BME280;7138;49.246;9.100;2023-02-26T09:34:33;98762.88;;;2.73;77.56
14120;BME280;7138;49.246;9.100;2023-02-26T09:36:59;98763.56;;;2.67;77.68
14120;BME280;7138;49.246;9.100;2023-02-26T09:39:24;98769.28;;;2.60;76.49
14120;BME280;7138;49.246;9.100;2023-02-26T09:41:53;98771.75;;;2.59;77.43
14120;BME280;7138;49.246;9.100;2023-02-26T09:44:24;98775.97;;;2.57;76.53
14120;BME280;7138;49.246;9.100;2023-02-26T09:47:01;98776.63;;;2.51;76.91
14120;BME280;7138;49.246;9.100;2023-02-26T09:49:44;98781.84;;;2.54;76.12
14120;BME280;7138;49.246;9.100;2023-02-26T09:52:22;98793.31;;;2.67;76.71
14120;BME280;7138;49.246;9.100;2023-02-26T09:54:52;98778.22;;;2.74;77.19
14120;BME280;7138;49.246;9.100;2023-02-26T09:57:29;98782.25;;;2.68;77.49
14120;BME280;7138;49.246;9.100;2023-02-26T09:59:56;98790.97;;;2.74;76.82
14120;BME280;7138;49.246;9.100;2023-02-26T10:02:37;98781.78;;;2.80;76.18
14120;BME280;7138;49.246;9.100;2023-02-26T10:05:19;98785.25;;;2.82;76.40
14120;BME280;7138;49.246;9.100;2023-02-26T10:07:55;98802.13;;;2.77;76.00
14120;BME280;7138;49.246;9.100;2023-02-26T10:10:34;98784.97;;;2.72;75.49
14120;BME280;7138;49.246;9.100;2023-02-26T10:13:03;98793.41;;;2.70;75.50
14120;BME280;7138;49.246;9.100;2023-02-26T10:15:36;98795.31;;;2.77;77.55
14120;BME280;7138;49.246;9.100;2023-02-26T10:18:11;98807.22;;;2.77;78.21
14120;BME280;7138;49.246;9.100;2023-02-26T10:20:46;98807.94;;;2.72;78.16
14120;BME280;7138;49.246;9.100;2023-02-26T10:23:25;98803.75;;;2.74;77.66
14120;BME280;7138;49.246;9.100;2023-02-26T10:26:00;98809.28;;;2.61;78.85
14120;BME280;7138;49.246;9.100;2023-02-26T10:28:47;98816.88;;;2.60;78.28
14120;BME280;7138;49.246;9.100;2023-02-26T10:31:24;98823.94;;;2.67;78.84
14120;BME280;7138;49.246;9.100;2023-02-26T10:34:07;98813.44;;;2.58;80.28
14120;BME280;7138;49.246;9.100;2023-02-26T10:36:46;98816.69;;;2.54;80.51
14120;BME280;7138;49.246;9.100;2023-02-26T10:39:28;98829.63;;;2.58;81.89
14120;BME280;7138;49.246;9.100;2023-02-26T10:42:01;98840.25;;;2.47;81.63
14120;BME280;7138;49.246;9.100;2023-02-26T10:44:37;98837.03;;;2.52;83.17
14120;BME280;7138;49.246;9.100;2023-02-26T10:47:16;98834.53;;;2.54;82.15
14120;BME280;7138;49.246;9.100;2023-02-26T10:49:53;98831.28;;;2.58;82.54
14120;BME280;7138;49.246;9.100;2023-02-26T10:52:23;98836.63;;;2.65;81.89
14120;BME280;7138;49.246;9.100;2023-02-26T10:55:12;98836.78;;;2.70;81.16
14120;BME280;7138;49.246;9.100;2023-02-26T10:57:56;98835.41;;;2.80;81.49
14120;BME280;7138;49.246;9.100;2023-02-26T11:00:25;98844.84;;;2.82;80.17
14120;BME280;7138;49.246;9.100;2023-02-26T11:02:53;98843.72;;;2.74;78.19
14120;BME280;7138;49.246;9.100;2023-02-26T11:05:24;98837.38;;;2.88;78.58
14120;BME280;7138;49.246;9.100;2023-02-26T11:07:56;98837.38;;;2.88;78.36
14120;BME280;7138;49.246;9.100;2023-02-26T11:10:26;98834.06;;;2.92;78.97
14120;BME280;7138;49.246;9.100;2023-02-26T11:12:53;98831.72;;;2.98;79.75
14120;BME280;7138;49.246;9.100;2023-02-26T11:15:22;98840.22;;;2.97;77.83
14120;BME280;7138;49.246;9.100;2023-02-26T11:17:55;98836.00;;;2.99;79.58
14120;BME280;7138;49.246;9.100;2023-02-26T11:20:33;98827.56;;;3.02;78.45
14120;BME280;7138;49.246;9.100;2023-02-26T11:23:03;98837.00;;;3.04;79.30
14120;BME280;7138;49.246;9.100;2023-02-26T11:25:32;98851.34;;;2.99;78.64
14120;BME280;7138;49.246;9.100;2023-02-26T11:28:03;98850.75;;;3.08;78.73
14120;BME280;7138;49.246;9.100;2023-02-26T11:30:35;98842.50;;;3.16;78.38
14120;BME280;7138;49.246;9.100;2023-02-26T11:33:15;98842.69;;;3.22;77.75
14120;BME280;7138;49.246;9.100;2023-02-26T11:35:44;98838.59;;;3.27;78.32
14120;BME280;7138;49.246;9.100;2023-02-26T11:38:18;98842.06;;;3.29;77.11
14120;BME280;7138;49.246;9.100;2023-02-26T11:40:49;98839.59;;;3.33;77.08
14120;BME280;7138;49.246;9.100;2023-02-26T11:43:20;98833.97;;;3.44;77.02
14120;BME280;7138;49.246;9.100;2023-02-26T11:45:53;98832.38;;;3.48;75.46
14120;BME280;7138;49.246;9.100;2023-02-26T11:48:24;98831.84;;;3.59;74.99
14120;BME280;7138;49.246;9.100;2023-02-26T11:50:57;98834.94;;;3.48;74.25
14120;BME280;7138;49.246;9.100;2023-02-26T11:53:31;98846.22;;;3.56;74.03
14120;BME280;7138;49.246;9.100;2023-02-26T11:56:00;98850.25;;;3.48;74.19
14120;BME280;7138;49.246;9.100;2023-02-26T11:58:28;98848.50;;;3.45;74.21
14120;BME280;7138;49.246;9.100;2023-02-26T12:00:58;98835.47;;;3.38;73.84
14120;BME280;7138;49.246;9.100;2023-02-26T12:03:30;98850.09;;;3.42;73.41
14120;BME280;7138;49.246;9.100;2023-02-26T12:06:00;98835.28;;;3.31;73.89
14120;BME280;7138;49.246;9.100;2023-02-26T12:08:31;98848.31;;;3.39;73.62
14120;BME280;7138;49.246;9.100;2023-02-26T12:11:24;98847.59;;;3.43;74.15
14120;BME280;7138;49.246;9.100;2023-02-26T12:14:10;98847.41;;;3.37;73.00
14120;BME280;7138;49.246;9.100;2023-02-26T12:16:50;98839.34;;;3.53;74.18
14120;BME280;7138;49.246;9.100;2023-02-26T12:19:33;98842.13;;;3.61;73.92
14120;BME280;7138;49.246;9.100;2023-02-26T12:22:28;98836.44;;;3.71;73.07
14120;BME280;7138;49.246;9.100;2023-02-26T12:25:24;98838.06;;;3.67;73.68
14120;BME280;7138;49.246;9.100;2023-02-26T12:28:25;98834.75;;;3.71;73.05
14120;BME280;7138;49.246;9.100;2023-02-26T12:31:16;98844.28;;;3.47;72.32
14120;BME280;7138;49.246;9.100;2023-02-26T12:33:55;98852.72;;;3.45;71.67
14120;BME280;7138;49.246;9.100;2023-02-26T12:36:41;98854.47;;;3.46;71.30
14120;BME280;7138;49.246;9.100;2023-02-26T12:39:39;98852.13;;;3.53;71.71
14120;BME280;7138;49.246;9.100;2023-02-26T12:42:19;98854.59;;;3.50;70.70
14120;BME280;7138;49.246;9.100;2023-02-26T12:45:18;98849.84;;;3.62;72.24
14120;BME280;7138;49.246;9.100;2023-02-26T12:48:07;98853.06;;;3.85;72.33
14120;BME280;7138;49.246;9.100;2023-02-26T12:50:56;98855.53;;;3.82;70.43
14120;BME280;7138;49.246;9.100;2023-02-26T12:53:40;98849.81;;;3.91;70.30
14120;BME280;7138;49.246;9.100;2023-02-26T12:56:47;98837.88;;;3.91;68.80
14120;BME280;7138;49.246;9.100;2023-02-26T12:59:36;98842.34;;;3.98;69.16
14120;BME280;7138;49.246;9.100;2023-02-26T13:02:33;98845.91;;;4.03;68.57
14120;BME280;7138;49.246;9.100;2023-02-26T13:05:23;98850.38;;;4.12;68.71
14120;BME280;7138;49.246;9.100;2023-02-26T13:08:11;98860.00;;;4.20;68.54
14120;BME280;7138;49.246;9.100;2023-02-26T13:10:57;98859.44;;;4.32;68.35
14120;BME280;7138;49.246;9.100;2023-02-26T13:13:47;98865.91;;;4.18;68.24
14120;BME280;7138;49.246;9.100;2023-02-26T13:16:30;98870.81;;;4.10;68.21
14120;BME280;7138;49.246;9.100;2023-02-26T13:19:24;98864.69;;;4.05;68.07
14120;BME280;7138;49.246;9.100;2023-02-26T13:21:57;98867.50;;;4.14;68.96
14120;BME280;7138;49.246;9.100;2023-02-26T13:24:32;98873.66;;;4.21;68.98
14120;BME280;7138;49.246;9.100;2023-02-26T13:27:01;98862.19;;;4.07;67.60
14120;BME280;7138;49.246;9.100;2023-02-26T13:29:37;98869.72;;;4.02;68.14
14120;BME280;7138;49.246;9.100;2023-02-26T13:32:11;98869.81;;;4.05;68.83
14120;BME280;7138;49.246;9.100;2023-02-26T13:34:45;98864.00;;;4.11;69.17
14120;BME280;7138;49.246;9.100;2023-02-26T13:37:23;98871.31;;;3.97;68.97
14120;BME280;7138;49.246;9.100;2023-02-26T13:40:02;98873.31;;;4.09;69.99
14120;BME280;7138;49.246;9.100;2023-02-26T13:42:42;98866.47;;;4.08;69.37
14120;BME280;7138;49.246;9.100;2023-02-26T13:45:33;98877.00;;;4.18;69.75
14120;BME280;7138;49.246;9.100;2023-02-26T13:48:18;98861.41;;;4.09;68.90